createdAt,value
2022-10-10T00:00:26.616Z,99.99
2022-10-10T00:01:26.674Z,99.99
2022-10-10T00:02:26.605Z,99.99
2022-10-10T00:03:26.587Z,99.99
2022-10-10T00:04:26.590Z,99.99
2022-10-10T00:05:26.564Z,99.99
2022-10-10T00:06:31.881Z,99.99
2022-10-10T00:07:28.577Z,99.99
2022-10-10T00:08:26.549Z,99.99
2022-10-10T00:09:26.545Z,99.99
2022-10-10T00:10:26.538Z,99.99
2022-10-10T00:11:26.566Z,99.99
2022-10-10T00:12:26.539Z,99.99
2022-10-10T00:13:26.512Z,99.99
2022-10-10T00:14:29.309Z,99.99
2022-10-10T00:15:27.541Z,99.99
2022-10-10T00:16:26.521Z,99.99
2022-10-10T00:17:26.481Z,99.99
2022-10-10T00:18:26.534Z,99.99
2022-10-10T00:19:26.466Z,99.99
2022-10-10T00:20:26.453Z,99.99
2022-10-10T00:21:26.484Z,99.99
2022-10-10T00:22:26.437Z,99.99
2022-10-10T00:23:26.431Z,99.99
2022-10-10T00:24:26.420Z,99.99
2022-10-10T00:25:26.415Z,99.99
2022-10-10T00:26:26.433Z,99.99
2022-10-10T00:27:26.398Z,99.99
2022-10-10T00:28:26.438Z,99.99
2022-10-10T00:29:26.388Z,99.99
2022-10-10T00:30:26.389Z,99.99
2022-10-10T00:31:26.413Z,99.99
2022-10-10T00:32:26.361Z,99.99
2022-10-10T00:33:26.366Z,99.99
2022-10-10T00:34:26.349Z,99.99
2022-10-10T00:35:26.374Z,99.99
2022-10-10T00:36:26.349Z,99.99
2022-10-10T00:37:26.319Z,99.99
2022-10-10T00:38:26.309Z,99.99
2022-10-10T00:39:26.286Z,99.99
2022-10-10T00:40:27.290Z,99.99
2022-10-10T00:41:26.316Z,99.99
2022-10-10T00:42:26.290Z,99.99
2022-10-10T00:43:26.275Z,99.99
2022-10-10T00:44:26.250Z,99.99
2022-10-10T00:45:26.246Z,99.99
2022-10-10T00:46:26.267Z,99.99
2022-10-10T00:47:26.234Z,99.99
2022-10-10T00:48:26.231Z,99.99
2022-10-10T00:49:26.219Z,99.99
2022-10-10T00:50:26.212Z,99.99
2022-10-10T00:51:26.228Z,99.99
2022-10-10T00:52:26.190Z,99.99
2022-10-10T00:53:26.186Z,99.99
2022-10-10T00:54:26.173Z,99.99
2022-10-10T00:55:26.170Z,99.99
2022-10-10T00:56:26.187Z,99.99
2022-10-10T00:57:26.152Z,99.99
2022-10-10T00:58:26.148Z,99.99
2022-10-10T00:59:26.136Z,99.99
2022-10-10T01:00:26.130Z,99.99
2022-10-10T01:01:26.351Z,99.99
2022-10-10T01:02:26.114Z,99.99
2022-10-10T01:03:26.086Z,99.99
2022-10-10T01:04:27.100Z,99.99
2022-10-10T01:05:26.094Z,99.99
2022-10-10T01:06:26.107Z,99.99
2022-10-10T01:07:26.066Z,99.99
2022-10-10T01:08:26.058Z,99.99
2022-10-10T01:09:26.045Z,99.99
2022-10-10T01:10:26.044Z,99.99
2022-10-10T01:11:26.077Z,99.99
2022-10-10T01:12:26.031Z,99.99
2022-10-10T01:13:26.020Z,99.99
2022-10-10T01:14:26.012Z,99.99
2022-10-10T01:15:26.021Z,99.99
2022-10-10T01:16:26.024Z,99.99
2022-10-10T01:17:26.004Z,99.99
2022-10-10T01:18:26.137Z,99.99
2022-10-10T01:19:25.964Z,99.99
2022-10-10T01:20:26.965Z,99.99
2022-10-10T01:21:25.984Z,99.99
2022-10-10T01:22:25.974Z,99.99
2022-10-10T01:23:25.937Z,99.99
2022-10-10T01:24:25.930Z,99.99
2022-10-10T01:25:25.920Z,99.99
2022-10-10T01:26:25.983Z,99.99
2022-10-10T01:27:30.970Z,99.99
2022-10-10T01:28:27.935Z,99.99
2022-10-10T01:29:25.887Z,99.99
2022-10-10T01:30:25.887Z,99.99
2022-10-10T01:31:25.900Z,99.99
2022-10-10T01:32:25.859Z,99.99
2022-10-10T01:33:25.855Z,99.99
2022-10-10T01:34:25.845Z,99.99
2022-10-10T01:35:25.834Z,99.99
2022-10-10T01:36:25.862Z,99.99
2022-10-10T01:37:25.825Z,99.99
2022-10-10T01:38:25.810Z,99.99
2022-10-10T01:39:25.798Z,99.99
2022-10-10T01:40:25.792Z,99.99
2022-10-10T01:41:25.811Z,99.99
2022-10-10T01:42:26.777Z,99.99
2022-10-10T01:43:25.767Z,99.99
2022-10-10T01:44:25.761Z,99.99
2022-10-10T01:45:25.756Z,99.99
2022-10-10T01:46:25.841Z,99.99
2022-10-10T01:47:25.781Z,99.99
2022-10-10T01:48:25.728Z,99.99
2022-10-10T01:49:25.719Z,99.99
2022-10-10T01:50:25.714Z,99.99
2022-10-10T01:51:25.700Z,99.99
2022-10-10T01:52:25.741Z,99.99
2022-10-10T01:53:25.695Z,99.99
2022-10-10T01:54:25.680Z,99.99
2022-10-10T01:55:25.669Z,99.99
2022-10-10T01:56:25.703Z,99.99
2022-10-10T01:57:25.676Z,99.99
2022-10-10T01:58:25.653Z,99.99
2022-10-10T01:59:25.642Z,99.99
2022-10-10T02:00:25.634Z,99.99
2022-10-10T02:01:25.629Z,99.99
2022-10-10T02:02:25.877Z,99.99
2022-10-10T02:03:25.618Z,99.99
2022-10-10T02:04:25.605Z,99.99
2022-10-10T02:05:25.601Z,99.99
2022-10-10T02:06:25.618Z,99.99
2022-10-10T02:07:26.584Z,99.99
2022-10-10T02:08:25.580Z,99.99
2022-10-10T02:09:25.565Z,99.99
2022-10-10T02:10:25.571Z,99.99
2022-10-10T02:11:25.553Z,99.99
2022-10-10T02:12:25.571Z,99.99
2022-10-10T02:13:25.537Z,99.99
2022-10-10T02:14:25.523Z,99.99
2022-10-10T02:15:25.522Z,99.99
2022-10-10T02:16:25.504Z,99.99
2022-10-10T02:17:25.532Z,99.99
2022-10-10T02:18:25.586Z,99.99
2022-10-10T02:19:25.491Z,99.99
2022-10-10T02:20:25.489Z,99.99
2022-10-10T02:21:25.477Z,99.99
2022-10-10T02:22:25.494Z,99.99
2022-10-10T02:23:25.459Z,99.99
2022-10-10T02:24:25.447Z,99.99
2022-10-10T02:25:25.444Z,99.99
2022-10-10T02:26:25.432Z,99.99
2022-10-10T02:27:25.793Z,99.99
2022-10-10T02:28:25.419Z,99.99
2022-10-10T02:29:25.415Z,99.99
2022-10-10T02:30:25.406Z,99.99
2022-10-10T02:31:25.422Z,99.99
2022-10-10T02:32:25.388Z,99.99
2022-10-10T02:33:25.366Z,99.99
2022-10-10T02:34:25.374Z,99.99
2022-10-10T02:35:25.365Z,99.99
2022-10-10T02:36:25.384Z,99.99
2022-10-10T02:37:25.345Z,99.99
2022-10-10T02:38:25.333Z,99.99
2022-10-10T02:39:25.326Z,99.99
2022-10-10T02:40:25.564Z,99.99
2022-10-10T02:41:25.341Z,99.99
2022-10-10T02:42:25.300Z,99.99
2022-10-10T02:43:25.640Z,99.99
2022-10-10T02:44:25.286Z,99.99
2022-10-10T02:45:25.277Z,99.99
2022-10-10T02:46:25.287Z,99.99
2022-10-10T02:47:25.292Z,99.99
2022-10-10T02:48:25.252Z,99.99
2022-10-10T02:49:25.236Z,99.99
2022-10-10T02:50:25.232Z,99.99
2022-10-10T02:51:29.678Z,99.99
2022-10-10T02:52:27.248Z,99.99
2022-10-10T02:53:25.212Z,99.99
2022-10-10T02:54:25.421Z,99.99
2022-10-10T02:55:25.191Z,99.99
2022-10-10T02:56:25.185Z,99.99
2022-10-10T02:57:25.205Z,99.99
2022-10-10T02:58:25.164Z,99.99
2022-10-10T02:59:25.164Z,99.99
2022-10-10T03:00:25.151Z,99.99
2022-10-10T03:01:25.171Z,99.99
2022-10-10T03:02:25.166Z,99.99
2022-10-10T03:03:25.133Z,99.99
2022-10-10T03:04:25.179Z,99.99
2022-10-10T03:05:25.106Z,99.99
2022-10-10T03:06:25.140Z,99.99
2022-10-10T03:07:25.127Z,99.99
2022-10-10T03:08:25.090Z,99.99
2022-10-10T03:09:25.080Z,99.99
2022-10-10T03:10:25.067Z,99.99
2022-10-10T03:11:25.055Z,99.99
2022-10-10T03:12:25.186Z,99.99
2022-10-10T03:13:25.042Z,99.99
2022-10-10T03:14:25.093Z,99.99
2022-10-10T03:15:25.025Z,99.99
2022-10-10T03:16:25.023Z,99.99
2022-10-10T03:17:25.040Z,99.99
2022-10-10T03:18:24.997Z,99.99
2022-10-10T03:19:24.996Z,99.99
2022-10-10T03:20:25.018Z,99.99
2022-10-10T03:21:24.980Z,99.99
2022-10-10T03:22:24.997Z,99.99
2022-10-10T03:23:24.965Z,99.99
2022-10-10T03:24:24.953Z,99.99
2022-10-10T03:25:24.950Z,99.99
2022-10-10T03:26:24.939Z,99.99
2022-10-10T03:27:24.958Z,99.99
2022-10-10T03:28:24.959Z,99.99
2022-10-10T03:29:24.915Z,99.99
2022-10-10T03:30:24.905Z,99.99
2022-10-10T03:31:24.898Z,99.99
2022-10-10T03:32:24.919Z,99.99
2022-10-10T03:33:24.876Z,99.99
2022-10-10T03:34:24.874Z,99.99
2022-10-10T03:35:24.927Z,99.99
2022-10-10T03:36:25.002Z,99.99
2022-10-10T03:37:24.871Z,99.99
2022-10-10T03:38:24.839Z,99.99
2022-10-10T03:39:24.832Z,99.99
2022-10-10T03:40:24.905Z,99.99
2022-10-10T03:41:24.820Z,99.99
2022-10-10T03:42:24.833Z,99.99
2022-10-10T03:43:24.799Z,99.99
2022-10-10T03:44:24.796Z,99.99
2022-10-10T03:45:24.782Z,99.99
2022-10-10T03:46:24.779Z,99.99
2022-10-10T03:47:24.796Z,99.99
2022-10-10T03:48:24.766Z,99.99
2022-10-10T03:49:24.749Z,99.99
2022-10-10T03:50:24.752Z,99.99
2022-10-10T03:51:24.736Z,99.99
2022-10-10T03:52:24.755Z,99.99
2022-10-10T03:53:24.717Z,99.99
2022-10-10T03:54:24.718Z,99.99
2022-10-10T03:55:24.704Z,99.99
2022-10-10T03:56:24.691Z,99.99
2022-10-10T03:57:24.722Z,99.99
2022-10-10T03:58:24.707Z,99.99
2022-10-10T03:59:24.667Z,99.99
2022-10-10T04:00:24.661Z,99.99
2022-10-10T04:01:24.703Z,99.99
2022-10-10T04:02:24.697Z,99.99
2022-10-10T04:03:24.639Z,99.99
2022-10-10T04:04:24.715Z,99.99
2022-10-10T04:05:24.626Z,99.99
2022-10-10T04:06:24.611Z,99.99
2022-10-10T04:07:24.634Z,99.99
2022-10-10T04:08:24.593Z,99.99
2022-10-10T04:09:24.615Z,99.99
2022-10-10T04:10:24.589Z,99.99
2022-10-10T04:11:24.573Z,99.99
2022-10-10T04:12:24.607Z,99.99
2022-10-10T04:13:24.558Z,99.99
2022-10-10T04:14:24.546Z,99.99
2022-10-10T04:15:24.537Z,99.99
2022-10-10T04:16:24.546Z,99.99
2022-10-10T04:17:24.523Z,99.99
2022-10-10T04:18:24.545Z,99.99
2022-10-10T04:19:24.516Z,99.99
2022-10-10T04:20:24.518Z,99.99
2022-10-10T04:21:24.493Z,99.99
2022-10-10T04:22:24.490Z,99.99
2022-10-10T04:23:24.495Z,99.99
2022-10-10T04:24:24.470Z,99.99
2022-10-10T04:25:24.469Z,99.99
2022-10-10T04:26:24.471Z,99.99
2022-10-10T04:27:24.441Z,99.99
2022-10-10T04:28:24.483Z,99.99
2022-10-10T04:29:24.423Z,99.99
2022-10-10T04:30:24.412Z,99.99
2022-10-10T04:31:24.403Z,99.99
2022-10-10T04:32:24.470Z,99.99
2022-10-10T04:33:24.418Z,99.99
2022-10-10T04:34:24.376Z,99.99
2022-10-10T04:35:24.374Z,99.99
2022-10-10T04:36:24.359Z,99.99
2022-10-10T04:37:24.365Z,99.99
2022-10-10T04:38:24.378Z,99.99
2022-10-10T04:39:24.340Z,99.99
2022-10-10T04:40:26.806Z,99.99
2022-10-10T04:41:25.336Z,99.99
2022-10-10T04:42:24.324Z,99.99
2022-10-10T04:43:24.330Z,99.99
2022-10-10T04:44:24.296Z,99.99
2022-10-10T04:45:24.287Z,99.99
2022-10-10T04:46:24.280Z,99.99
2022-10-10T04:47:24.270Z,99.99
2022-10-10T04:48:24.297Z,99.99
2022-10-10T04:49:24.258Z,99.99
2022-10-10T04:50:24.246Z,99.99
2022-10-10T04:51:24.237Z,99.99
2022-10-10T04:52:24.229Z,99.99
2022-10-10T04:53:24.326Z,99.99
2022-10-10T04:54:24.217Z,99.99
2022-10-10T04:55:24.205Z,99.99
2022-10-10T04:56:24.207Z,99.99
2022-10-10T04:57:24.197Z,99.99
2022-10-10T04:58:24.208Z,99.99
2022-10-10T04:59:24.169Z,99.99
2022-10-10T05:00:24.164Z,99.99
2022-10-10T05:01:24.179Z,99.99
2022-10-10T05:02:24.148Z,99.99
2022-10-10T05:03:24.173Z,99.99
2022-10-10T05:04:24.130Z,99.99
2022-10-10T05:05:24.122Z,99.99
2022-10-10T05:06:24.113Z,99.99
2022-10-10T05:07:24.111Z,99.99
2022-10-10T05:08:24.125Z,99.99
2022-10-10T05:09:24.092Z,99.99
2022-10-10T05:10:24.083Z,99.99
2022-10-10T05:11:24.083Z,99.99
2022-10-10T05:12:24.062Z,99.99
2022-10-10T05:13:24.081Z,99.99
2022-10-10T05:14:24.051Z,99.99
2022-10-10T05:15:24.049Z,99.99
2022-10-10T05:16:24.030Z,99.99
2022-10-10T05:17:24.026Z,99.99
2022-10-10T05:18:24.039Z,99.99
2022-10-10T05:19:24.020Z,99.99
2022-10-10T05:20:23.996Z,99.99
2022-10-10T05:21:23.981Z,99.99
2022-10-10T05:22:24.989Z,99.99
2022-10-10T05:23:24.004Z,99.99
2022-10-10T05:24:23.966Z,99.99
2022-10-10T05:25:23.959Z,99.99
2022-10-10T05:26:23.948Z,99.99
2022-10-10T05:27:23.936Z,99.99
2022-10-10T05:28:24.019Z,99.99
2022-10-10T05:29:23.926Z,99.99
2022-10-10T05:30:23.922Z,99.99
2022-10-10T05:31:23.911Z,99.99
2022-10-10T05:32:23.895Z,99.99
2022-10-10T05:33:23.916Z,99.99
2022-10-10T05:34:23.891Z,99.99
2022-10-10T05:35:23.967Z,99.99
2022-10-10T05:36:23.870Z,99.99
2022-10-10T05:37:23.862Z,99.99
2022-10-10T05:38:23.877Z,99.99
2022-10-10T05:39:23.852Z,99.99
2022-10-10T05:40:23.834Z,99.99
2022-10-10T05:41:23.824Z,99.99
2022-10-10T05:42:23.815Z,99.99
2022-10-10T05:43:23.834Z,99.99
2022-10-10T05:44:23.802Z,99.99
2022-10-10T05:45:23.797Z,99.99
2022-10-10T05:46:23.787Z,99.99
2022-10-10T05:47:27.618Z,99.99
2022-10-10T05:48:24.800Z,99.99
2022-10-10T05:49:23.759Z,99.99
2022-10-10T05:50:23.756Z,99.99
2022-10-10T05:51:23.745Z,99.99
2022-10-10T05:52:23.744Z,99.99
2022-10-10T05:53:23.765Z,99.99
2022-10-10T05:54:23.729Z,99.99
2022-10-10T05:55:23.708Z,99.99
2022-10-10T05:56:23.702Z,99.99
2022-10-10T05:57:23.702Z,99.99
2022-10-10T05:58:23.734Z,99.99
2022-10-10T05:59:23.688Z,99.99
2022-10-10T06:00:23.665Z,99.99
2022-10-10T06:01:23.662Z,99.99
2022-10-10T06:02:23.667Z,99.99
2022-10-10T06:03:23.676Z,99.99
2022-10-10T06:04:23.638Z,99.99
2022-10-10T06:05:23.625Z,99.99
2022-10-10T06:06:23.617Z,99.99
2022-10-10T06:07:23.612Z,99.99
2022-10-10T06:08:23.628Z,99.99
2022-10-10T06:09:23.598Z,99.99
2022-10-10T06:10:23.582Z,99.99
2022-10-10T06:11:23.576Z,99.99
2022-10-10T06:12:23.570Z,99.99
2022-10-10T06:13:24.611Z,99.99
2022-10-10T06:14:24.552Z,99.99
2022-10-10T06:15:23.544Z,99.99
2022-10-10T06:16:23.528Z,99.99
2022-10-10T06:17:23.529Z,99.99
2022-10-10T06:18:23.550Z,99.99
2022-10-10T06:19:23.535Z,99.99
2022-10-10T06:20:23.507Z,99.99
2022-10-10T06:21:23.491Z,99.08
2022-10-10T06:22:23.476Z,97.86
2022-10-10T06:23:23.514Z,97.71
2022-10-10T06:24:23.471Z,95.96
2022-10-10T06:25:39.605Z,95.61
2022-10-10T06:26:25.466Z,95.46
2022-10-10T06:27:23.446Z,94.39
2022-10-10T06:28:23.537Z,92.80
2022-10-10T06:29:23.428Z,91.59
2022-10-10T06:30:23.420Z,89.81
2022-10-10T06:31:23.410Z,89.45
2022-10-10T06:32:23.403Z,88.53
2022-10-10T06:33:23.390Z,88.74
2022-10-10T06:34:23.410Z,88.02
2022-10-10T06:35:23.379Z,87.47
2022-10-10T06:36:23.382Z,86.20
2022-10-10T06:37:23.362Z,85.89
2022-10-10T06:38:23.356Z,86.10
2022-10-10T06:39:23.376Z,86.88
2022-10-10T06:40:23.339Z,86.38
2022-10-10T06:41:23.350Z,84.44
2022-10-10T06:42:23.324Z,84.03
2022-10-10T06:43:23.316Z,83.62
2022-10-10T06:44:23.337Z,82.87
2022-10-10T06:45:23.348Z,83.34
2022-10-10T06:46:23.300Z,82.83
2022-10-10T06:47:23.288Z,81.26
2022-10-10T06:48:23.277Z,80.16
2022-10-10T06:49:23.295Z,79.82
2022-10-10T06:50:23.260Z,77.55
2022-10-10T06:51:23.258Z,78.39
2022-10-10T06:52:23.244Z,78.77
2022-10-10T06:53:23.237Z,77.17
2022-10-10T06:54:23.257Z,76.65
2022-10-10T06:55:23.220Z,76.42
2022-10-10T06:56:27.458Z,76.04
2022-10-10T06:57:24.201Z,77.06
2022-10-10T06:58:23.189Z,76.72
2022-10-10T06:59:23.208Z,75.57
2022-10-10T07:00:23.188Z,74.76
2022-10-10T07:01:23.217Z,75.57
2022-10-10T07:02:23.178Z,75.50
2022-10-10T07:03:23.151Z,76.21
2022-10-10T07:04:23.166Z,74.89
2022-10-10T07:05:23.134Z,76.72
2022-10-10T07:06:23.121Z,75.70
2022-10-10T07:07:23.113Z,74.55
2022-10-10T07:08:23.091Z,75.50
2022-10-10T07:09:24.126Z,75.67
2022-10-10T07:10:23.088Z,75.37
2022-10-10T07:11:23.096Z,74.58
2022-10-10T07:12:23.077Z,76.59
2022-10-10T07:13:23.070Z,75.57
2022-10-10T07:14:23.098Z,75.29
2022-10-10T07:15:23.043Z,75.83
2022-10-10T07:16:23.047Z,73.06
2022-10-10T07:17:23.030Z,72.48
2022-10-10T07:18:23.035Z,72.25
2022-10-10T07:19:23.052Z,72.14
2022-10-10T07:20:23.013Z,72.04
2022-10-10T07:21:22.998Z,71.70
2022-10-10T07:22:22.990Z,73.50
2022-10-10T07:23:22.987Z,72.45
2022-10-10T07:24:23.005Z,72.41
2022-10-10T07:25:22.962Z,71.57
2022-10-10T07:26:22.957Z,70.49
2022-10-10T07:27:22.952Z,71.30
2022-10-10T07:28:22.960Z,71.44
2022-10-10T07:29:22.960Z,70.93
2022-10-10T07:30:22.924Z,70.76
2022-10-10T07:31:22.911Z,69.07
2022-10-10T07:32:22.906Z,67.93
2022-10-10T07:33:22.896Z,67.86
2022-10-10T07:34:22.926Z,68.57
2022-10-10T07:35:22.886Z,69.18
2022-10-10T07:36:22.869Z,67.80
2022-10-10T07:37:22.866Z,66.75
2022-10-10T07:38:22.858Z,66.75
2022-10-10T07:39:22.882Z,67.22
2022-10-10T07:40:22.842Z,67.12
2022-10-10T07:41:22.839Z,67.90
2022-10-10T07:42:22.833Z,68.10
2022-10-10T07:43:22.814Z,66.89
2022-10-10T07:44:22.837Z,67.35
2022-10-10T07:45:22.806Z,67.83
2022-10-10T07:46:22.789Z,66.86
2022-10-10T07:47:22.793Z,66.52
2022-10-10T07:48:22.784Z,64.98
2022-10-10T07:49:22.796Z,65.38
2022-10-10T07:50:22.784Z,66.48
2022-10-10T07:51:22.748Z,66.86
2022-10-10T07:52:22.746Z,66.78
2022-10-10T07:53:22.736Z,66.32
2022-10-10T07:54:22.783Z,65.88
2022-10-10T07:55:22.723Z,66.32
2022-10-10T07:56:22.732Z,66.25
2022-10-10T07:57:22.700Z,65.88
2022-10-10T07:58:22.695Z,65.65
2022-10-10T07:59:22.709Z,66.36
2022-10-10T08:00:22.678Z,66.16
2022-10-10T08:01:22.696Z,67.90
2022-10-10T08:02:22.659Z,66.69
2022-10-10T08:03:22.646Z,65.45
2022-10-10T08:04:23.674Z,66.29
2022-10-10T08:05:22.655Z,67.50
2022-10-10T08:06:22.627Z,66.59
2022-10-10T08:07:22.619Z,66.42
2022-10-10T08:08:22.617Z,66.46
2022-10-10T08:09:22.641Z,66.19
2022-10-10T08:10:22.613Z,66.03
2022-10-10T08:11:22.586Z,64.76
2022-10-10T08:12:22.580Z,63.68
2022-10-10T08:13:22.573Z,64.92
2022-10-10T08:14:22.593Z,65.06
2022-10-10T08:15:22.550Z,65.96
2022-10-10T08:16:22.546Z,64.59
2022-10-10T08:17:22.542Z,62.69
2022-10-10T08:18:22.534Z,61.93
2022-10-10T08:19:22.551Z,60.82
2022-10-10T08:20:22.777Z,61.40
2022-10-10T08:21:22.511Z,61.69
2022-10-10T08:22:22.504Z,64.33
2022-10-10T08:23:23.846Z,64.53
2022-10-10T08:24:22.540Z,64.43
2022-10-10T08:25:22.490Z,63.79
2022-10-10T08:26:22.501Z,63.06
2022-10-10T08:27:22.487Z,63.56
2022-10-10T08:28:22.526Z,62.20
2022-10-10T08:29:22.478Z,62.49
2022-10-10T08:30:22.518Z,62.96
2022-10-10T08:31:22.450Z,62.33
2022-10-10T08:32:22.436Z,62.23
2022-10-10T08:33:22.418Z,60.53
2022-10-10T08:34:22.440Z,59.98
2022-10-10T08:35:22.433Z,59.38
2022-10-10T08:36:22.462Z,58.98
2022-10-10T08:37:27.013Z,57.92
2022-10-10T08:38:24.377Z,58.07
2022-10-10T08:39:22.400Z,59.41
2022-10-10T08:40:22.368Z,59.28
2022-10-10T08:41:22.362Z,58.75
2022-10-10T08:42:22.352Z,58.22
2022-10-10T08:43:22.353Z,58.75
2022-10-10T08:44:22.370Z,57.09
2022-10-10T08:45:22.331Z,57.09
2022-10-10T08:46:22.321Z,57.39
2022-10-10T08:47:22.309Z,58.49
2022-10-10T08:48:22.298Z,58.12
2022-10-10T08:49:22.331Z,56.99
2022-10-10T08:50:22.304Z,56.59
2022-10-10T08:51:22.306Z,57.17
2022-10-10T08:52:22.281Z,57.09
2022-10-10T08:53:22.272Z,56.34
2022-10-10T08:54:22.265Z,56.21
2022-10-10T08:55:22.289Z,57.54
2022-10-10T08:56:22.251Z,56.81
2022-10-10T08:57:22.269Z,55.88
2022-10-10T08:58:22.227Z,55.96
2022-10-10T08:59:22.242Z,56.44
2022-10-10T09:00:22.246Z,56.81
2022-10-10T09:01:24.864Z,56.79
2022-10-10T09:02:26.005Z,56.01
2022-10-10T09:03:23.193Z,54.86
2022-10-10T09:04:22.188Z,54.06
2022-10-10T09:05:22.209Z,53.46
2022-10-10T09:06:22.172Z,54.68
2022-10-10T09:07:22.157Z,53.41
2022-10-10T09:08:26.362Z,53.64
2022-10-10T09:09:23.151Z,53.41
2022-10-10T09:10:22.163Z,52.81
2022-10-10T09:11:22.129Z,52.94
2022-10-10T09:12:22.126Z,52.34
2022-10-10T09:13:22.148Z,52.04
2022-10-10T09:14:22.119Z,52.04
2022-10-10T09:15:22.144Z,52.09
2022-10-10T09:16:22.120Z,53.31
2022-10-10T09:17:22.114Z,52.86
2022-10-10T09:18:22.085Z,53.94
2022-10-10T09:19:22.096Z,53.83
2022-10-10T09:20:22.120Z,53.19
2022-10-10T09:21:22.064Z,52.89
2022-10-10T09:22:22.063Z,53.83
2022-10-10T09:23:22.047Z,53.44
2022-10-10T09:24:22.068Z,53.04
2022-10-10T09:25:22.039Z,53.09
2022-10-10T09:26:22.031Z,52.99
2022-10-10T09:27:22.017Z,52.04
2022-10-10T09:28:22.065Z,52.67
2022-10-10T09:29:22.040Z,53.09
2022-10-10T09:30:21.994Z,52.14
2022-10-10T09:31:21.988Z,51.89
2022-10-10T09:32:21.987Z,52.12
2022-10-10T09:33:21.980Z,51.82
2022-10-10T09:34:22.004Z,52.72
2022-10-10T09:35:22.029Z,53.86
2022-10-10T09:36:21.959Z,53.98
2022-10-10T09:37:35.655Z,53.69
2022-10-10T09:38:23.948Z,53.46
2022-10-10T09:39:21.960Z,53.28
2022-10-10T09:40:21.930Z,53.73
2022-10-10T09:41:21.925Z,52.54
2022-10-10T09:42:21.920Z,53.63
2022-10-10T09:43:21.911Z,51.67
2022-10-10T09:44:21.933Z,51.62
2022-10-10T09:45:21.906Z,52.14
2022-10-10T09:46:21.897Z,53.26
2022-10-10T09:47:21.881Z,54.03
2022-10-10T09:48:21.868Z,53.31
2022-10-10T09:49:21.913Z,53.14
2022-10-10T09:50:21.875Z,54.06
2022-10-10T09:51:21.854Z,55.27
2022-10-10T09:52:21.851Z,54.50
2022-10-10T09:53:21.840Z,55.18
2022-10-10T09:54:21.865Z,54.43
2022-10-10T09:55:21.829Z,54.18
2022-10-10T09:56:21.822Z,54.58
2022-10-10T09:57:24.176Z,55.33
2022-10-10T09:58:21.810Z,55.73
2022-10-10T09:59:21.826Z,55.43
2022-10-10T10:00:22.785Z,55.27
2022-10-10T10:01:21.888Z,55.38
2022-10-10T10:02:21.784Z,54.16
2022-10-10T10:03:21.781Z,55.63
2022-10-10T10:04:29.547Z,55.32
2022-10-10T10:05:23.814Z,54.38
2022-10-10T10:06:21.752Z,55.55
2022-10-10T10:07:21.785Z,54.25
2022-10-10T10:08:21.784Z,55.22
2022-10-10T10:09:21.744Z,54.28
2022-10-10T10:10:21.739Z,52.86
2022-10-10T10:11:21.722Z,53.19
2022-10-10T10:12:21.709Z,53.28
2022-10-10T10:13:21.742Z,53.38
2022-10-10T10:14:22.699Z,53.26
2022-10-10T10:15:21.685Z,53.36
2022-10-10T10:16:21.689Z,53.19
2022-10-10T10:17:21.679Z,54.21
2022-10-10T10:18:21.702Z,54.38
2022-10-10T10:19:21.665Z,54.53
2022-10-10T10:20:21.653Z,54.21
2022-10-10T10:21:21.647Z,53.48
2022-10-10T10:22:26.184Z,54.25
2022-10-10T10:23:23.680Z,56.21
2022-10-10T10:24:21.654Z,54.30
2022-10-10T10:25:21.621Z,53.26
2022-10-10T10:26:21.616Z,52.84
2022-10-10T10:27:21.602Z,54.05
2022-10-10T10:28:21.703Z,53.50
2022-10-10T10:29:21.594Z,53.60
2022-10-10T10:30:21.581Z,53.01
2022-10-10T10:31:21.579Z,53.45
2022-10-10T10:32:21.570Z,54.72
2022-10-10T10:33:21.559Z,54.05
2022-10-10T10:34:21.584Z,54.02
2022-10-10T10:35:21.548Z,53.31
2022-10-10T10:36:21.544Z,52.61
2022-10-10T10:37:21.533Z,53.13
2022-10-10T10:38:21.531Z,55.40
2022-10-10T10:39:21.624Z,54.05
2022-10-10T10:40:21.518Z,53.58
2022-10-10T10:41:21.518Z,52.34
2022-10-10T10:42:21.506Z,52.98
2022-10-10T10:43:21.501Z,53.38
2022-10-10T10:44:21.509Z,52.93
2022-10-10T10:45:21.478Z,52.34
2022-10-10T10:46:21.465Z,51.99
2022-10-10T10:47:22.482Z,51.62
2022-10-10T10:48:21.455Z,51.62
2022-10-10T10:49:24.670Z,51.62
2022-10-10T10:50:21.445Z,52.44
2022-10-10T10:51:21.445Z,52.46
2022-10-10T10:52:21.429Z,53.06
2022-10-10T10:53:21.433Z,52.76
2022-10-10T10:54:21.444Z,53.65
2022-10-10T10:55:21.405Z,53.03
2022-10-10T10:56:21.426Z,51.28
2022-10-10T10:57:32.912Z,50.29
2022-10-10T10:59:41.738Z,53.06
2022-10-10T11:01:17.333Z,55.66
2022-10-10T11:01:44.781Z,55.79
2022-10-10T11:02:43.439Z,54.94
2022-10-10T11:05:17.740Z,54.02
2022-10-10T11:05:21.393Z,54.27
2022-10-10T11:05:31.064Z,52.69
2022-10-10T11:06:23.497Z,52.73
2022-10-10T11:07:21.559Z,52.76
2022-10-10T11:08:21.313Z,52.73
2022-10-10T11:09:50.799Z,53.90
2022-10-10T11:10:23.297Z,53.88
2022-10-10T11:11:21.292Z,53.45
2022-10-10T11:12:21.287Z,55.64
2022-10-10T11:13:21.277Z,54.39
2022-10-10T11:14:21.311Z,54.27
2022-10-10T11:15:21.266Z,55.64
2022-10-10T11:16:43.690Z,55.11
2022-10-10T11:17:23.254Z,55.29
2022-10-10T11:18:21.248Z,53.75
2022-10-10T11:19:21.272Z,55.09
2022-10-10T11:20:21.229Z,54.05
2022-10-10T11:21:21.224Z,54.07
2022-10-10T11:22:21.220Z,53.06
2022-10-10T11:23:21.211Z,53.00
2022-10-10T11:24:21.205Z,53.38
2022-10-10T11:25:21.221Z,52.66
2022-10-10T11:26:21.184Z,54.06
2022-10-10T11:27:21.184Z,52.98
2022-10-10T11:28:21.236Z,53.55
2022-10-10T11:29:21.196Z,53.92
2022-10-10T11:30:21.160Z,50.98
2022-10-10T11:31:21.156Z,50.51
2022-10-10T11:32:21.190Z,51.03
2022-10-10T11:33:21.148Z,51.30
2022-10-10T11:34:21.169Z,50.29
2022-10-10T11:35:21.133Z,50.38
2022-10-10T11:36:21.119Z,50.49
2022-10-10T11:37:21.109Z,49.73
2022-10-10T11:38:21.104Z,50.14
2022-10-10T11:39:21.128Z,50.63
2022-10-10T11:40:21.100Z,50.83
2022-10-10T11:41:21.082Z,51.15
2022-10-10T11:42:21.083Z,50.85
2022-10-10T11:43:21.076Z,51.25
2022-10-10T11:44:21.093Z,52.66
2022-10-10T11:45:21.056Z,53.99
2022-10-10T11:46:21.059Z,52.34
2022-10-10T11:47:21.045Z,53.77
2022-10-10T11:48:21.044Z,54.29
2022-10-10T11:49:21.061Z,53.97
2022-10-10T11:50:21.029Z,53.95
2022-10-10T11:51:21.020Z,53.47
2022-10-10T11:52:33.763Z,54.17
2022-10-10T11:53:22.999Z,53.57
2022-10-10T11:54:21.026Z,54.19
2022-10-10T11:55:20.988Z,53.70
2022-10-10T11:56:20.981Z,54.12
2022-10-10T11:57:20.974Z,54.22
2022-10-10T11:58:20.965Z,54.02
2022-10-10T11:59:20.996Z,53.08
2022-10-10T12:00:20.956Z,53.67
2022-10-10T12:01:20.956Z,52.95
2022-10-10T12:02:23.265Z,53.94
2022-10-10T12:03:20.993Z,52.44
2022-10-10T12:04:21.017Z,52.63
2022-10-10T12:05:20.930Z,52.95
2022-10-10T12:06:20.924Z,52.66
2022-10-10T12:07:20.909Z,52.73
2022-10-10T12:08:20.903Z,51.77
2022-10-10T12:09:20.917Z,51.89
2022-10-10T12:10:20.893Z,53.22
2022-10-10T12:11:20.881Z,53.77
2022-10-10T12:12:20.869Z,53.75
2022-10-10T12:13:20.865Z,53.45
2022-10-10T12:14:20.888Z,52.73
2022-10-10T12:15:20.860Z,53.64
2022-10-10T12:16:20.870Z,53.05
2022-10-10T12:17:20.836Z,52.98
2022-10-10T12:18:20.832Z,52.48
2022-10-10T12:19:20.859Z,52.48
2022-10-10T12:20:20.823Z,52.51
2022-10-10T12:21:20.813Z,53.42
2022-10-10T12:22:20.821Z,53.75
2022-10-10T12:23:20.899Z,56.28
2022-10-10T12:24:20.817Z,55.46
2022-10-10T12:25:20.780Z,55.38
2022-10-10T12:26:20.781Z,54.96
2022-10-10T12:27:20.789Z,53.87
2022-10-10T12:28:20.864Z,55.33
2022-10-10T12:29:20.788Z,56.87
2022-10-10T12:30:20.750Z,56.08
2022-10-10T12:31:20.743Z,56.97
2022-10-10T12:32:20.736Z,57.10
2022-10-10T12:33:20.727Z,57.69
2022-10-10T12:34:20.760Z,57.00
2022-10-10T12:35:20.748Z,57.62
2022-10-10T12:36:20.868Z,58.97
2022-10-10T12:37:20.705Z,58.22
2022-10-10T12:38:20.686Z,57.97
2022-10-10T12:39:20.719Z,56.95
2022-10-10T12:40:20.692Z,57.79
2022-10-10T12:41:20.672Z,57.59
2022-10-10T12:42:20.660Z,57.07
2022-10-10T12:43:20.661Z,56.55
2022-10-10T12:44:20.649Z,56.52
2022-10-10T12:45:20.682Z,56.15
2022-10-10T12:46:20.649Z,56.48
2022-10-10T12:47:20.634Z,57.55
2022-10-10T12:48:20.632Z,58.94
2022-10-10T12:49:20.663Z,60.22
2022-10-10T12:50:20.613Z,61.99
2022-10-10T12:51:20.599Z,61.54
2022-10-10T12:52:20.594Z,61.11
2022-10-10T12:53:20.583Z,60.56